sensor_id;sensor_type;location;lat;lon;timestamp;temperature;humidity
35457;DHT22;21575;51.538;-0.084;2022-09-09T00:00:23;16.20;99.90
35457;DHT22;21575;51.538;-0.084;2022-09-09T00:03:18;16.20;99.90
35457;DHT22;21575;51.538;-0.084;2022-09-09T00:11:12;16.20;99.90
35457;DHT22;21575;51.538;-0.084;2022-09-09T00:13:52;16.20;99.90
35457;DHT22;21575;51.538;-0.084;2022-09-09T00:16:29;16.20;99.90
35457;DHT22;21575;51.538;-0.084;2022-09-09T00:21:37;16.30;99.90
35457;DHT22;21575;51.538;-0.084;2022-09-09T00:24:23;16.30;99.90
35457;DHT22;21575;51.538;-0.084;2022-09-09T00:26:56;16.30;99.90
35457;DHT22;21575;51.538;-0.084;2022-09-09T00:29:43;16.30;99.90
35457;DHT22;21575;51.538;-0.084;2022-09-09T00:32:16;16.30;99.90
35457;DHT22;21575;51.538;-0.084;2022-09-09T00:34:51;16.30;99.90
35457;DHT22;21575;51.538;-0.084;2022-09-09T00:37:19;16.30;99.90
35457;DHT22;21575;51.538;-0.084;2022-09-09T00:39:46;16.40;99.90
35457;DHT22;21575;51.538;-0.084;2022-09-09T00:42:24;16.40;99.90
35457;DHT22;21575;51.538;-0.084;2022-09-09T00:45:00;16.40;99.90
35457;DHT22;21575;51.538;-0.084;2022-09-09T00:47:39;16.40;99.90
35457;DHT22;21575;51.538;-0.084;2022-09-09T00:53:20;16.50;99.90
35457;DHT22;21575;51.538;-0.084;2022-09-09T00:58:30;16.50;99.90
35457;DHT22;21575;51.538;-0.084;2022-09-09T01:01:08;16.50;99.90
35457;DHT22;21575;51.538;-0.084;2022-09-09T01:03:42;16.50;99.90
35457;DHT22;21575;51.538;-0.084;2022-09-09T01:06:30;16.60;99.90
35457;DHT22;21575;51.538;-0.084;2022-09-09T01:09:05;16.60;99.90
35457;DHT22;21575;51.538;-0.084;2022-09-09T01:11:52;16.60;99.90
35457;DHT22;21575;51.538;-0.084;2022-09-09T01:16:59;16.60;99.90
35457;DHT22;21575;51.538;-0.084;2022-09-09T01:28:08;16.50;99.90
35457;DHT22;21575;51.538;-0.084;2022-09-09T01:30:38;16.50;99.90
35457;DHT22;21575;51.538;-0.084;2022-09-09T01:33:04;16.50;99.90
35457;DHT22;21575;51.538;-0.084;2022-09-09T01:38:21;16.40;99.90
35457;DHT22;21575;51.538;-0.084;2022-09-09T01:40:47;16.50;99.90
35457;DHT22;21575;51.538;-0.084;2022-09-09T01:43:14;16.40;99.90
35457;DHT22;21575;51.538;-0.084;2022-09-09T01:45:41;16.40;99.90
35457;DHT22;21575;51.538;-0.084;2022-09-09T01:48:07;16.50;99.90
35457;DHT22;21575;51.538;-0.084;2022-09-09T01:50:33;16.50;99.90
35457;DHT22;21575;51.538;-0.084;2022-09-09T01:52:59;16.40;99.90
35457;DHT22;21575;51.538;-0.084;2022-09-09T01:55:38;16.40;99.90
35457;DHT22;21575;51.538;-0.084;2022-09-09T01:58:24;16.40;99.90
35457;DHT22;21575;51.538;-0.084;2022-09-09T02:01:03;16.30;99.90
35457;DHT22;21575;51.538;-0.084;2022-09-09T02:03:32;16.30;99.90
35457;DHT22;21575;51.538;-0.084;2022-09-09T02:11:16;16.10;99.90
35457;DHT22;21575;51.538;-0.084;2022-09-09T02:13:45;16.10;99.90
35457;DHT22;21575;51.538;-0.084;2022-09-09T02:18:57;16.00;99.90
35457;DHT22;21575;51.538;-0.084;2022-09-09T02:21:28;15.90;99.90
35457;DHT22;21575;51.538;-0.084;2022-09-09T02:23:55;16.00;99.90
35457;DHT22;21575;51.538;-0.084;2022-09-09T02:26:23;15.90;99.90
35457;DHT22;21575;51.538;-0.084;2022-09-09T02:28:52;15.90;99.90
35457;DHT22;21575;51.538;-0.084;2022-09-09T02:31:21;15.90;99.90
35457;DHT22;21575;51.538;-0.084;2022-09-09T02:33:56;15.90;99.90
35457;DHT22;21575;51.538;-0.084;2022-09-09T02:36:24;15.90;99.90
35457;DHT22;21575;51.538;-0.084;2022-09-09T02:38:52;15.90;99.90
35457;DHT22;21575;51.538;-0.084;2022-09-09T02:41:33;15.90;99.90
35457;DHT22;21575;51.538;-0.084;2022-09-09T02:44:00;15.90;99.90
35457;DHT22;21575;51.538;-0.084;2022-09-09T02:47:00;15.90;99.90
35457;DHT22;21575;51.538;-0.084;2022-09-09T02:57:54;15.80;99.90
35457;DHT22;21575;51.538;-0.084;2022-09-09T03:00:25;15.80;99.90
35457;DHT22;21575;51.538;-0.084;2022-09-09T03:02:52;15.80;99.90
35457;DHT22;21575;51.538;-0.084;2022-09-09T03:05:20;15.80;99.90
35457;DHT22;21575;51.538;-0.084;2022-09-09T03:07:46;15.90;99.90
35457;DHT22;21575;51.538;-0.084;2022-09-09T03:10:12;15.90;99.90
35457;DHT22;21575;51.538;-0.084;2022-09-09T03:12:38;15.90;99.90
35457;DHT22;21575;51.538;-0.084;2022-09-09T03:15:05;15.90;99.90
35457;DHT22;21575;51.538;-0.084;2022-09-09T03:17:31;15.90;99.90
35457;DHT22;21575;51.538;-0.084;2022-09-09T03:19:57;15.90;99.90
35457;DHT22;21575;51.538;-0.084;2022-09-09T03:22:24;15.90;99.90
35457;DHT22;21575;51.538;-0.084;2022-09-09T03:24:51;15.90;99.90
35457;DHT22;21575;51.538;-0.084;2022-09-09T03:27:17;15.90;99.90
35457;DHT22;21575;51.538;-0.084;2022-09-09T03:29:45;15.90;99.90
35457;DHT22;21575;51.538;-0.084;2022-09-09T03:32:10;15.80;99.90
35457;DHT22;21575;51.538;-0.084;2022-09-09T03:34:36;15.90;99.90
35457;DHT22;21575;51.538;-0.084;2022-09-09T03:37:04;15.80;99.90
35457;DHT22;21575;51.538;-0.084;2022-09-09T03:39:31;15.80;99.90
35457;DHT22;21575;51.538;-0.084;2022-09-09T03:41:56;15.80;99.90
35457;DHT22;21575;51.538;-0.084;2022-09-09T03:44:22;15.80;99.90
35457;DHT22;21575;51.538;-0.084;2022-09-09T03:46:48;15.80;99.90
35457;DHT22;21575;51.538;-0.084;2022-09-09T03:49:13;15.80;99.90
35457;DHT22;21575;51.538;-0.084;2022-09-09T03:51:39;15.80;99.90
35457;DHT22;21575;51.538;-0.084;2022-09-09T03:54:06;15.80;99.90
35457;DHT22;21575;51.538;-0.084;2022-09-09T03:56:34;15.80;99.90
35457;DHT22;21575;51.538;-0.084;2022-09-09T03:59:00;15.70;99.90
35457;DHT22;21575;51.538;-0.084;2022-09-09T04:01:27;15.80;99.90
35457;DHT22;21575;51.538;-0.084;2022-09-09T04:03:53;15.80;99.90
35457;DHT22;21575;51.538;-0.084;2022-09-09T04:06:20;15.70;99.90
35457;DHT22;21575;51.538;-0.084;2022-09-09T04:08:46;15.80;99.90
35457;DHT22;21575;51.538;-0.084;2022-09-09T04:11:14;15.80;99.90
35457;DHT22;21575;51.538;-0.084;2022-09-09T04:13:40;15.80;99.90
35457;DHT22;21575;51.538;-0.084;2022-09-09T04:16:08;15.80;99.90
35457;DHT22;21575;51.538;-0.084;2022-09-09T04:18:34;15.80;99.90
35457;DHT22;21575;51.538;-0.084;2022-09-09T04:21:00;15.80;99.90
35457;DHT22;21575;51.538;-0.084;2022-09-09T04:23:27;15.80;99.90
35457;DHT22;21575;51.538;-0.084;2022-09-09T04:25:55;15.80;99.90
35457;DHT22;21575;51.538;-0.084;2022-09-09T04:28:23;15.80;99.90
35457;DHT22;21575;51.538;-0.084;2022-09-09T04:30:50;15.80;99.90
35457;DHT22;21575;51.538;-0.084;2022-09-09T04:33:16;15.80;99.90
35457;DHT22;21575;51.538;-0.084;2022-09-09T04:35:47;15.80;99.90
35457;DHT22;21575;51.538;-0.084;2022-09-09T04:38:14;15.80;99.90
35457;DHT22;21575;51.538;-0.084;2022-09-09T04:40:46;15.90;99.90
35457;DHT22;21575;51.538;-0.084;2022-09-09T04:43:12;15.90;99.90
35457;DHT22;21575;51.538;-0.084;2022-09-09T04:45:37;15.90;99.90
35457;DHT22;21575;51.538;-0.084;2022-09-09T04:48:06;15.90;99.90
35457;DHT22;21575;51.538;-0.084;2022-09-09T04:50:32;15.90;99.90
35457;DHT22;21575;51.538;-0.084;2022-09-09T04:53:00;15.90;99.90
35457;DHT22;21575;51.538;-0.084;2022-09-09T04:55:26;15.90;99.90
35457;DHT22;21575;51.538;-0.084;2022-09-09T04:57:52;15.90;99.90
35457;DHT22;21575;51.538;-0.084;2022-09-09T05:00:18;15.90;99.90
35457;DHT22;21575;51.538;-0.084;2022-09-09T05:02:44;15.90;99.90
35457;DHT22;21575;51.538;-0.084;2022-09-09T05:05:10;15.90;99.90
35457;DHT22;21575;51.538;-0.084;2022-09-09T05:07:36;15.90;99.90
35457;DHT22;21575;51.538;-0.084;2022-09-09T05:10:02;16.00;99.90
35457;DHT22;21575;51.538;-0.084;2022-09-09T05:12:30;15.90;99.90
35457;DHT22;21575;51.538;-0.084;2022-09-09T05:14:56;16.00;99.90
35457;DHT22;21575;51.538;-0.084;2022-09-09T05:17:23;15.90;99.90
35457;DHT22;21575;51.538;-0.084;2022-09-09T05:19:48;15.90;99.90
35457;DHT22;21575;51.538;-0.084;2022-09-09T05:22:21;16.00;99.90
35457;DHT22;21575;51.538;-0.084;2022-09-09T05:24:49;16.00;99.90
35457;DHT22;21575;51.538;-0.084;2022-09-09T05:27:19;15.90;99.90
35457;DHT22;21575;51.538;-0.084;2022-09-09T05:29:45;15.90;99.90
35457;DHT22;21575;51.538;-0.084;2022-09-09T05:32:11;15.90;99.90
35457;DHT22;21575;51.538;-0.084;2022-09-09T05:34:39;15.90;99.90
35457;DHT22;21575;51.538;-0.084;2022-09-09T05:37:04;15.90;99.90
35457;DHT22;21575;51.538;-0.084;2022-09-09T05:39:30;15.90;99.90
35457;DHT22;21575;51.538;-0.084;2022-09-09T05:41:55;15.90;99.90
35457;DHT22;21575;51.538;-0.084;2022-09-09T05:44:21;15.90;99.90
35457;DHT22;21575;51.538;-0.084;2022-09-09T05:46:49;15.90;99.90
35457;DHT22;21575;51.538;-0.084;2022-09-09T05:49:15;15.90;99.90
35457;DHT22;21575;51.538;-0.084;2022-09-09T05:51:41;15.90;99.90
35457;DHT22;21575;51.538;-0.084;2022-09-09T05:54:08;15.90;99.90
35457;DHT22;21575;51.538;-0.084;2022-09-09T05:56:34;15.90;99.90
35457;DHT22;21575;51.538;-0.084;2022-09-09T05:59:00;15.90;99.90
35457;DHT22;21575;51.538;-0.084;2022-09-09T06:01:31;15.90;99.90
35457;DHT22;21575;51.538;-0.084;2022-09-09T06:03:58;15.90;99.90
35457;DHT22;21575;51.538;-0.084;2022-09-09T06:06:26;15.90;99.90
35457;DHT22;21575;51.538;-0.084;2022-09-09T06:08:54;15.90;99.90
35457;DHT22;21575;51.538;-0.084;2022-09-09T06:11:30;15.90;99.90
35457;DHT22;21575;51.538;-0.084;2022-09-09T06:13:56;15.90;99.90
35457;DHT22;21575;51.538;-0.084;2022-09-09T06:16:24;15.90;99.90
35457;DHT22;21575;51.538;-0.084;2022-09-09T06:18:51;15.90;99.90
35457;DHT22;21575;51.538;-0.084;2022-09-09T06:21:19;15.90;99.90
35457;DHT22;21575;51.538;-0.084;2022-09-09T06:23:45;15.90;99.90
35457;DHT22;21575;51.538;-0.084;2022-09-09T06:28:39;15.90;99.90
35457;DHT22;21575;51.538;-0.084;2022-09-09T06:31:07;15.90;99.90
35457;DHT22;21575;51.538;-0.084;2022-09-09T06:33:38;15.90;99.90
35457;DHT22;21575;51.538;-0.084;2022-09-09T06:36:20;15.90;99.90
35457;DHT22;21575;51.538;-0.084;2022-09-09T06:38:47;15.90;99.90
35457;DHT22;21575;51.538;-0.084;2022-09-09T06:41:15;16.00;99.90
35457;DHT22;21575;51.538;-0.084;2022-09-09T06:43:41;16.00;99.90
35457;DHT22;21575;51.538;-0.084;2022-09-09T06:46:15;16.00;99.90
35457;DHT22;21575;51.538;-0.084;2022-09-09T06:48:42;16.00;99.90
35457;DHT22;21575;51.538;-0.084;2022-09-09T06:51:14;16.00;99.90
35457;DHT22;21575;51.538;-0.084;2022-09-09T06:53:42;16.00;99.90
35457;DHT22;21575;51.538;-0.084;2022-09-09T06:58:50;16.00;99.90
35457;DHT22;21575;51.538;-0.084;2022-09-09T07:01:18;16.00;99.90
35457;DHT22;21575;51.538;-0.084;2022-09-09T07:03:50;16.10;99.90
35457;DHT22;21575;51.538;-0.084;2022-09-09T07:06:31;16.10;99.90
35457;DHT22;21575;51.538;-0.084;2022-09-09T07:08:58;16.20;99.90
35457;DHT22;21575;51.538;-0.084;2022-09-09T07:11:27;16.20;99.90
35457;DHT22;21575;51.538;-0.084;2022-09-09T07:13:53;16.30;99.90
35457;DHT22;21575;51.538;-0.084;2022-09-09T07:16:21;16.30;99.90
35457;DHT22;21575;51.538;-0.084;2022-09-09T07:18:48;16.30;99.90
35457;DHT22;21575;51.538;-0.084;2022-09-09T07:21:16;16.30;99.90
35457;DHT22;21575;51.538;-0.084;2022-09-09T07:23:42;16.30;99.90
35457;DHT22;21575;51.538;-0.084;2022-09-09T07:26:28;16.30;99.90
35457;DHT22;21575;51.538;-0.084;2022-09-09T07:28:55;16.30;99.90
35457;DHT22;21575;51.538;-0.084;2022-09-09T07:31:26;16.20;99.90
35457;DHT22;21575;51.538;-0.084;2022-09-09T07:33:53;16.20;99.90
35457;DHT22;21575;51.538;-0.084;2022-09-09T07:36:21;16.20;99.90
35457;DHT22;21575;51.538;-0.084;2022-09-09T07:38:50;16.30;99.90
35457;DHT22;21575;51.538;-0.084;2022-09-09T07:41:23;16.30;99.90
35457;DHT22;21575;51.538;-0.084;2022-09-09T07:43:50;16.30;99.90
35457;DHT22;21575;51.538;-0.084;2022-09-09T07:46:17;16.30;99.90
35457;DHT22;21575;51.538;-0.084;2022-09-09T07:48:46;16.40;99.90
35457;DHT22;21575;51.538;-0.084;2022-09-09T07:51:16;16.30;99.90
35457;DHT22;21575;51.538;-0.084;2022-09-09T07:53:45;16.30;99.90
35457;DHT22;21575;51.538;-0.084;2022-09-09T07:56:15;16.40;99.90
35457;DHT22;21575;51.538;-0.084;2022-09-09T07:58:44;16.40;99.90
35457;DHT22;21575;51.538;-0.084;2022-09-09T08:01:13;16.40;99.90
35457;DHT22;21575;51.538;-0.084;2022-09-09T08:03:39;16.40;99.90
35457;DHT22;21575;51.538;-0.084;2022-09-09T08:06:07;16.50;99.90
35457;DHT22;21575;51.538;-0.084;2022-09-09T08:08:35;16.50;99.90
35457;DHT22;21575;51.538;-0.084;2022-09-09T08:11:10;16.60;99.90
35457;DHT22;21575;51.538;-0.084;2022-09-09T08:13:37;16.70;99.90
35457;DHT22;21575;51.538;-0.084;2022-09-09T08:16:15;16.80;99.90
35457;DHT22;21575;51.538;-0.084;2022-09-09T08:18:41;16.90;99.90
35457;DHT22;21575;51.538;-0.084;2022-09-09T08:21:10;16.90;99.90
35457;DHT22;21575;51.538;-0.084;2022-09-09T08:23:43;17.00;99.90
35457;DHT22;21575;51.538;-0.084;2022-09-09T08:26:13;17.10;99.90
35457;DHT22;21575;51.538;-0.084;2022-09-09T08:28:40;17.20;99.90
35457;DHT22;21575;51.538;-0.084;2022-09-09T08:31:23;17.20;99.90
35457;DHT22;21575;51.538;-0.084;2022-09-09T08:33:50;17.30;99.90
35457;DHT22;21575;51.538;-0.084;2022-09-09T08:36:19;17.30;99.90
35457;DHT22;21575;51.538;-0.084;2022-09-09T08:38:52;17.20;99.90
35457;DHT22;21575;51.538;-0.084;2022-09-09T08:44:31;17.20;99.90
35457;DHT22;21575;51.538;-0.084;2022-09-09T08:55:37;17.30;99.90
35457;DHT22;21575;51.538;-0.084;2022-09-09T08:58:31;17.30;99.90
35457;DHT22;21575;51.538;-0.084;2022-09-09T09:04:00;17.40;99.90
35457;DHT22;21575;51.538;-0.084;2022-09-09T09:11:51;17.50;99.90
35457;DHT22;21575;51.538;-0.084;2022-09-09T09:14:24;17.50;99.90
35457;DHT22;21575;51.538;-0.084;2022-09-09T09:19:20;17.60;99.90
35457;DHT22;21575;51.538;-0.084;2022-09-09T09:24:20;17.70;99.90
35457;DHT22;21575;51.538;-0.084;2022-09-09T09:26:48;17.60;99.90
35457;DHT22;21575;51.538;-0.084;2022-09-09T09:29:18;17.60;99.90
35457;DHT22;21575;51.538;-0.084;2022-09-09T09:31:53;17.60;99.90
35457;DHT22;21575;51.538;-0.084;2022-09-09T09:34:20;17.70;99.90
35457;DHT22;21575;51.538;-0.084;2022-09-09T09:36:59;17.70;99.90
35457;DHT22;21575;51.538;-0.084;2022-09-09T09:39:31;17.70;99.90
35457;DHT22;21575;51.538;-0.084;2022-09-09T09:42:10;17.80;99.90
35457;DHT22;21575;51.538;-0.084;2022-09-09T09:44:39;17.90;99.90
35457;DHT22;21575;51.538;-0.084;2022-09-09T09:47:21;18.00;99.90
35457;DHT22;21575;51.538;-0.084;2022-09-09T09:49:59;18.00;99.90
35457;DHT22;21575;51.538;-0.084;2022-09-09T09:52:27;18.00;99.90
35457;DHT22;21575;51.538;-0.084;2022-09-09T09:54:54;18.10;99.90
35457;DHT22;21575;51.538;-0.084;2022-09-09T09:57:26;18.30;99.90
35457;DHT22;21575;51.538;-0.084;2022-09-09T10:02:43;18.50;99.90
35457;DHT22;21575;51.538;-0.084;2022-09-09T10:05:21;18.60;99.90
35457;DHT22;21575;51.538;-0.084;2022-09-09T10:10:42;18.60;99.90
35457;DHT22;21575;51.538;-0.084;2022-09-09T10:16:08;18.50;99.90
35457;DHT22;21575;51.538;-0.084;2022-09-09T10:18:52;18.50;99.90
35457;DHT22;21575;51.538;-0.084;2022-09-09T10:32:49;18.50;99.90
35457;DHT22;21575;51.538;-0.084;2022-09-09T10:35:36;18.60;99.90
35457;DHT22;21575;51.538;-0.084;2022-09-09T10:46:43;18.60;99.90
35457;DHT22;21575;51.538;-0.084;2022-09-09T10:49:33;18.60;99.90
35457;DHT22;21575;51.538;-0.084;2022-09-09T10:55:13;18.40;99.90
35457;DHT22;21575;51.538;-0.084;2022-09-09T11:00:24;18.10;99.90
35457;DHT22;21575;51.538;-0.084;2022-09-09T11:03:00;18.00;99.90
35457;DHT22;21575;51.538;-0.084;2022-09-09T11:10:53;17.90;99.90
35457;DHT22;21575;51.538;-0.084;2022-09-09T11:19:40;18.30;99.90
35457;DHT22;21575;51.538;-0.084;2022-09-09T11:25:29;18.70;99.90
35457;DHT22;21575;51.538;-0.084;2022-09-09T11:41:37;19.50;99.90
35457;DHT22;21575;51.538;-0.084;2022-09-09T11:44:17;19.70;99.90
35457;DHT22;21575;51.538;-0.084;2022-09-09T11:46:46;19.80;99.90
35457;DHT22;21575;51.538;-0.084;2022-09-09T11:49:40;20.00;99.90
35457;DHT22;21575;51.538;-0.084;2022-09-09T11:52:35;20.20;99.90
35457;DHT22;21575;51.538;-0.084;2022-09-09T11:55:20;20.30;99.90
35457;DHT22;21575;51.538;-0.084;2022-09-09T11:58:04;20.30;99.90
35457;DHT22;21575;51.538;-0.084;2022-09-09T12:03:06;20.40;99.90
35457;DHT22;21575;51.538;-0.084;2022-09-09T12:05:50;20.40;99.90
35457;DHT22;21575;51.538;-0.084;2022-09-09T12:08:22;20.30;99.90
35457;DHT22;21575;51.538;-0.084;2022-09-09T12:10:58;20.20;99.90
35457;DHT22;21575;51.538;-0.084;2022-09-09T12:13:26;20.00;99.90
35457;DHT22;21575;51.538;-0.084;2022-09-09T12:26:29;20.00;99.90
35457;DHT22;21575;51.538;-0.084;2022-09-09T12:29:14;20.00;99.90
35457;DHT22;21575;51.538;-0.084;2022-09-09T12:32:06;19.90;99.90
35457;DHT22;21575;51.538;-0.084;2022-09-09T12:34:47;19.90;99.90
35457;DHT22;21575;51.538;-0.084;2022-09-09T12:37:34;19.80;99.90
35457;DHT22;21575;51.538;-0.084;2022-09-09T12:40:05;19.90;99.90
35457;DHT22;21575;51.538;-0.084;2022-09-09T12:42:32;19.90;99.90
35457;DHT22;21575;51.538;-0.084;2022-09-09T12:45:03;19.90;99.90
35457;DHT22;21575;51.538;-0.084;2022-09-09T12:47:45;20.00;99.90
35457;DHT22;21575;51.538;-0.084;2022-09-09T12:50:21;20.00;99.90
35457;DHT22;21575;51.538;-0.084;2022-09-09T12:52:48;20.10;99.90
35457;DHT22;21575;51.538;-0.084;2022-09-09T12:55:31;20.10;99.90
35457;DHT22;21575;51.538;-0.084;2022-09-09T12:58:00;20.20;99.90
35457;DHT22;21575;51.538;-0.084;2022-09-09T13:00:26;20.20;99.90
35457;DHT22;21575;51.538;-0.084;2022-09-09T13:02:58;20.30;99.90
35457;DHT22;21575;51.538;-0.084;2022-09-09T13:05:35;20.30;99.90
35457;DHT22;21575;51.538;-0.084;2022-09-09T13:08:13;20.30;99.90
35457;DHT22;21575;51.538;-0.084;2022-09-09T13:10:55;20.40;99.90
35457;DHT22;21575;51.538;-0.084;2022-09-09T13:13:37;20.40;99.90
35457;DHT22;21575;51.538;-0.084;2022-09-09T13:16:05;20.40;99.90
35457;DHT22;21575;51.538;-0.084;2022-09-09T13:18:39;20.40;99.90
35457;DHT22;21575;51.538;-0.084;2022-09-09T13:21:05;20.40;99.90
35457;DHT22;21575;51.538;-0.084;2022-09-09T13:23:36;20.50;99.90
35457;DHT22;21575;51.538;-0.084;2022-09-09T13:26:25;20.60;99.90
35457;DHT22;21575;51.538;-0.084;2022-09-09T13:28:53;20.70;99.90
35457;DHT22;21575;51.538;-0.084;2022-09-09T13:31:30;20.80;99.90
35457;DHT22;21575;51.538;-0.084;2022-09-09T13:33:58;20.80;99.90
35457;DHT22;21575;51.538;-0.084;2022-09-09T13:36:32;20.90;99.90
35457;DHT22;21575;51.538;-0.084;2022-09-09T13:38:59;20.90;99.90
35457;DHT22;21575;51.538;-0.084;2022-09-09T13:41:32;20.90;99.90
35457;DHT22;21575;51.538;-0.084;2022-09-09T13:43:58;20.90;99.90
35457;DHT22;21575;51.538;-0.084;2022-09-09T13:46:34;21.00;99.90
35457;DHT22;21575;51.538;-0.084;2022-09-09T13:49:19;21.00;99.90
35457;DHT22;21575;51.538;-0.084;2022-09-09T13:51:48;21.10;99.90
35457;DHT22;21575;51.538;-0.084;2022-09-09T13:54:17;21.10;99.90
35457;DHT22;21575;51.538;-0.084;2022-09-09T13:56:44;21.10;99.90
35457;DHT22;21575;51.538;-0.084;2022-09-09T13:59:17;21.00;99.90
35457;DHT22;21575;51.538;-0.084;2022-09-09T14:01:45;21.00;99.90
35457;DHT22;21575;51.538;-0.084;2022-09-09T14:04:11;20.90;99.90
35457;DHT22;21575;51.538;-0.084;2022-09-09T14:06:37;20.90;99.90
35457;DHT22;21575;51.538;-0.084;2022-09-09T14:09:04;21.00;99.90
35457;DHT22;21575;51.538;-0.084;2022-09-09T14:11:29;21.00;99.90
35457;DHT22;21575;51.538;-0.084;2022-09-09T14:13:55;21.00;99.90
35457;DHT22;21575;51.538;-0.084;2022-09-09T14:16:21;21.00;99.90
35457;DHT22;21575;51.538;-0.084;2022-09-09T14:18:47;21.00;99.90
35457;DHT22;21575;51.538;-0.084;2022-09-09T14:21:13;20.90;99.90
35457;DHT22;21575;51.538;-0.084;2022-09-09T14:23:41;20.90;99.90
35457;DHT22;21575;51.538;-0.084;2022-09-09T14:26:07;21.00;99.90
35457;DHT22;21575;51.538;-0.084;2022-09-09T14:28:34;21.10;99.90
35457;DHT22;21575;51.538;-0.084;2022-09-09T14:31:01;21.10;99.90
35457;DHT22;21575;51.538;-0.084;2022-09-09T14:33:27;21.10;99.90
35457;DHT22;21575;51.538;-0.084;2022-09-09T14:36:00;21.30;99.90
35457;DHT22;21575;51.538;-0.084;2022-09-09T14:38:34;21.40;99.90
35457;DHT22;21575;51.538;-0.084;2022-09-09T14:41:04;21.50;99.90
35457;DHT22;21575;51.538;-0.084;2022-09-09T14:43:29;21.60;99.90
35457;DHT22;21575;51.538;-0.084;2022-09-09T14:46:07;21.70;99.90
35457;DHT22;21575;51.538;-0.084;2022-09-09T14:48:33;21.70;99.90
35457;DHT22;21575;51.538;-0.084;2022-09-09T14:51:20;21.70;99.90
35457;DHT22;21575;51.538;-0.084;2022-09-09T14:53:47;21.70;99.90
35457;DHT22;21575;51.538;-0.084;2022-09-09T14:56:16;21.60;99.90
35457;DHT22;21575;51.538;-0.084;2022-09-09T14:58:42;21.60;99.90
35457;DHT22;21575;51.538;-0.084;2022-09-09T15:01:11;21.50;99.90
35457;DHT22;21575;51.538;-0.084;2022-09-09T15:03:42;21.40;99.90
35457;DHT22;21575;51.538;-0.084;2022-09-09T15:06:13;21.40;99.90
35457;DHT22;21575;51.538;-0.084;2022-09-09T15:08:41;21.40;99.90
35457;DHT22;21575;51.538;-0.084;2022-09-09T15:11:07;21.40;99.90
35457;DHT22;21575;51.538;-0.084;2022-09-09T15:13:34;21.40;99.90
35457;DHT22;21575;51.538;-0.084;2022-09-09T15:16:19;21.30;99.90
35457;DHT22;21575;51.538;-0.084;2022-09-09T15:18:45;21.30;99.90
35457;DHT22;21575;51.538;-0.084;2022-09-09T15:21:19;21.20;99.90
35457;DHT22;21575;51.538;-0.084;2022-09-09T15:23:45;21.20;99.90
35457;DHT22;21575;51.538;-0.084;2022-09-09T15:26:12;21.10;99.90
35457;DHT22;21575;51.538;-0.084;2022-09-09T15:28:41;21.10;99.90
35457;DHT22;21575;51.538;-0.084;2022-09-09T15:31:14;21.00;99.90
35457;DHT22;21575;51.538;-0.084;2022-09-09T15:33:41;20.80;99.90
35457;DHT22;21575;51.538;-0.084;2022-09-09T15:36:37;20.70;99.90
35457;DHT22;21575;51.538;-0.084;2022-09-09T15:39:05;20.50;99.90
35457;DHT22;21575;51.538;-0.084;2022-09-09T15:41:31;20.40;99.90
35457;DHT22;21575;51.538;-0.084;2022-09-09T15:43:57;20.20;99.90
35457;DHT22;21575;51.538;-0.084;2022-09-09T15:49:18;20.10;99.90
35457;DHT22;21575;51.538;-0.084;2022-09-09T15:51:46;20.10;99.90
35457;DHT22;21575;51.538;-0.084;2022-09-09T15:54:14;20.10;99.90
35457;DHT22;21575;51.538;-0.084;2022-09-09T15:56:42;20.00;99.90
35457;DHT22;21575;51.538;-0.084;2022-09-09T15:59:09;20.00;99.90
35457;DHT22;21575;51.538;-0.084;2022-09-09T16:01:35;20.00;99.90
35457;DHT22;21575;51.538;-0.084;2022-09-09T16:04:01;20.00;99.90
35457;DHT22;21575;51.538;-0.084;2022-09-09T16:06:28;20.00;99.90
35457;DHT22;21575;51.538;-0.084;2022-09-09T16:08:55;20.10;99.90
35457;DHT22;21575;51.538;-0.084;2022-09-09T16:11:24;20.20;99.90
35457;DHT22;21575;51.538;-0.084;2022-09-09T16:13:53;20.20;99.90
35457;DHT22;21575;51.538;-0.084;2022-09-09T16:16:21;20.30;99.90
35457;DHT22;21575;51.538;-0.084;2022-09-09T16:18:50;20.30;99.90
35457;DHT22;21575;51.538;-0.084;2022-09-09T16:21:26;20.40;99.90
35457;DHT22;21575;51.538;-0.084;2022-09-09T16:23:55;20.40;99.90
35457;DHT22;21575;51.538;-0.084;2022-09-09T16:26:21;20.50;99.90
35457;DHT22;21575;51.538;-0.084;2022-09-09T16:28:48;20.50;99.90
35457;DHT22;21575;51.538;-0.084;2022-09-09T16:31:21;20.60;99.90
35457;DHT22;21575;51.538;-0.084;2022-09-09T16:33:48;20.60;99.90
35457;DHT22;21575;51.538;-0.084;2022-09-09T16:36:18;20.70;99.90
35457;DHT22;21575;51.538;-0.084;2022-09-09T16:38:44;20.60;99.90
35457;DHT22;21575;51.538;-0.084;2022-09-09T16:41:11;20.60;99.90
35457;DHT22;21575;51.538;-0.084;2022-09-09T16:43:38;20.50;99.90
35457;DHT22;21575;51.538;-0.084;2022-09-09T16:46:18;20.40;99.90
35457;DHT22;21575;51.538;-0.084;2022-09-09T16:48:45;20.40;99.90
35457;DHT22;21575;51.538;-0.084;2022-09-09T16:51:22;20.40;99.90
35457;DHT22;21575;51.538;-0.084;2022-09-09T16:53:50;20.40;99.90
35457;DHT22;21575;51.538;-0.084;2022-09-09T16:56:18;20.40;99.90
35457;DHT22;21575;51.538;-0.084;2022-09-09T16:58:49;20.40;99.90
35457;DHT22;21575;51.538;-0.084;2022-09-09T17:01:15;20.40;99.90
35457;DHT22;21575;51.538;-0.084;2022-09-09T17:03:41;20.40;99.90
35457;DHT22;21575;51.538;-0.084;2022-09-09T17:06:12;20.30;99.90
35457;DHT22;21575;51.538;-0.084;2022-09-09T17:08:38;20.30;99.90
35457;DHT22;21575;51.538;-0.084;2022-09-09T17:11:11;20.30;99.90
35457;DHT22;21575;51.538;-0.084;2022-09-09T17:13:40;20.20;99.90
35457;DHT22;21575;51.538;-0.084;2022-09-09T17:16:05;20.20;99.90
35457;DHT22;21575;51.538;-0.084;2022-09-09T17:18:31;20.10;99.90
35457;DHT22;21575;51.538;-0.084;2022-09-09T17:21:05;20.00;99.90
35457;DHT22;21575;51.538;-0.084;2022-09-09T17:23:32;19.90;99.90
35457;DHT22;21575;51.538;-0.084;2022-09-09T17:25:59;19.80;99.90
35457;DHT22;21575;51.538;-0.084;2022-09-09T17:28:26;19.80;99.90
35457;DHT22;21575;51.538;-0.084;2022-09-09T17:30:57;19.70;99.90
35457;DHT22;21575;51.538;-0.084;2022-09-09T17:33:23;19.60;99.90
35457;DHT22;21575;51.538;-0.084;2022-09-09T17:35:51;19.50;99.90
35457;DHT22;21575;51.538;-0.084;2022-09-09T17:38:17;19.50;99.90
35457;DHT22;21575;51.538;-0.084;2022-09-09T17:40:43;19.40;99.90
35457;DHT22;21575;51.538;-0.084;2022-09-09T17:43:08;19.40;99.90
35457;DHT22;21575;51.538;-0.084;2022-09-09T17:45:34;19.40;99.90
35457;DHT22;21575;51.538;-0.084;2022-09-09T17:48:00;19.30;99.90
35457;DHT22;21575;51.538;-0.084;2022-09-09T17:50:26;19.30;99.90
35457;DHT22;21575;51.538;-0.084;2022-09-09T17:52:51;19.20;99.90
35457;DHT22;21575;51.538;-0.084;2022-09-09T17:55:17;19.20;99.90
35457;DHT22;21575;51.538;-0.084;2022-09-09T17:57:43;19.20;99.90
35457;DHT22;21575;51.538;-0.084;2022-09-09T18:00:09;19.10;99.90
35457;DHT22;21575;51.538;-0.084;2022-09-09T18:02:35;19.10;99.90
35457;DHT22;21575;51.538;-0.084;2022-09-09T18:05:03;19.10;99.90
35457;DHT22;21575;51.538;-0.084;2022-09-09T18:07:29;19.10;99.90